createdAt,value
2022-09-23T00:01:07.791Z,101852.16
2022-09-23T00:03:37.108Z,101848.81
2022-09-23T00:06:06.308Z,101840.03
2022-09-23T00:08:33.042Z,101833.88
2022-09-23T00:11:11.695Z,101847.25
2022-09-23T00:13:39.211Z,101851.19
2022-09-23T00:16:07.010Z,101840.50
2022-09-23T00:18:33.514Z,101839.47
2022-09-23T00:21:09.162Z,101808.75
2022-09-23T00:23:35.817Z,101838.31
2022-09-23T00:26:04.332Z,101841.41
2022-09-23T00:28:31.506Z,101805.09
2022-09-23T00:31:02.570Z,101826.44
2022-09-23T00:33:29.791Z,101810.59
2022-09-23T00:36:04.133Z,101818.34
2022-09-23T00:38:30.708Z,101825.84
2022-09-23T00:40:58.390Z,101828.31
2022-09-23T00:43:46.954Z,101834.53
2022-09-23T00:46:28.138Z,101807.56
2022-09-23T00:49:14.192Z,101805.09
2022-09-23T00:51:45.522Z,101799.81
2022-09-23T00:54:11.908Z,101798.81
2022-09-23T00:56:39.397Z,101791.91
2022-09-23T00:59:07.269Z,101797.19
2022-09-23T01:01:33.692Z,101789.28
2022-09-23T01:04:00.390Z,101805.31
2022-09-23T01:06:26.847Z,101811.03
2022-09-23T01:08:53.324Z,101807.78
2022-09-23T01:11:29.823Z,101814.91
2022-09-23T01:14:02.342Z,101796.78
2022-09-23T01:16:41.581Z,101810.25
2022-09-23T01:19:37.295Z,101812.91
2022-09-23T01:22:06.413Z,101805.69
2022-09-23T01:24:38.496Z,101778.03
2022-09-23T01:27:23.127Z,101804.34
2022-09-23T01:30:24.653Z,101801.84
2022-09-23T01:32:58.594Z,101803.84
2022-09-23T01:35:30.359Z,101777.34
2022-09-23T01:37:59.666Z,101789.09
2022-09-23T01:40:31.346Z,101791.50
2022-09-23T01:43:04.922Z,101780.53
2022-09-23T01:45:44.412Z,101773.63
2022-09-23T01:48:36.925Z,101787.94
2022-09-23T01:51:12.151Z,101774.84
2022-09-23T01:54:00.324Z,101787.25
2022-09-23T01:56:37.603Z,101762.31
2022-09-23T01:59:09.188Z,101782.56
2022-09-23T02:01:40.585Z,101765.09
2022-09-23T02:04:11.457Z,101771.69
2022-09-23T02:06:43.291Z,101784.47
2022-09-23T02:09:16.042Z,101776.16
2022-09-23T02:11:46.344Z,101756.09
2022-09-23T02:14:21.426Z,101775.75
2022-09-23T02:16:51.199Z,101762.78
2022-09-23T02:19:22.485Z,101767.88
2022-09-23T02:22:05.665Z,101760.38
2022-09-23T02:24:34.581Z,101760.38
2022-09-23T02:27:07.796Z,101754.38
2022-09-23T02:29:45.604Z,101728.00
2022-09-23T02:32:32.180Z,101728.88
2022-09-23T02:35:15.551Z,101750.03
2022-09-23T02:37:48.189Z,101720.03
2022-09-23T02:40:32.066Z,101747.47
2022-09-23T02:43:03.908Z,101740.06
2022-09-23T02:45:31.065Z,101718.97
2022-09-23T02:48:02.812Z,101723.44
2022-09-23T02:50:30.838Z,101706.38
2022-09-23T02:52:58.205Z,101709.06
2022-09-23T02:55:25.359Z,101708.53
2022-09-23T02:57:52.327Z,101710.19
2022-09-23T03:00:19.119Z,101715.25
2022-09-23T03:03:23.595Z,101726.75
2022-09-23T03:05:56.554Z,101724.00
2022-09-23T03:08:36.761Z,101723.34
2022-09-23T03:11:13.427Z,101722.41
2022-09-23T03:14:05.039Z,101712.97
2022-09-23T03:16:44.533Z,101690.53
2022-09-23T03:19:35.265Z,101712.47
2022-09-23T03:22:19.006Z,101714.59
2022-09-23T03:24:46.071Z,101688.56
2022-09-23T03:27:16.122Z,101712.78
2022-09-23T03:29:47.084Z,101691.81
2022-09-23T03:32:14.731Z,101690.91
2022-09-23T03:34:43.034Z,101706.97
2022-09-23T03:37:20.777Z,101696.75
2022-09-23T03:39:51.665Z,101703.53
2022-09-23T03:42:24.359Z,101697.22
2022-09-23T03:44:56.776Z,101670.22
2022-09-23T03:47:25.226Z,101682.78
2022-09-23T03:49:52.188Z,101690.22
2022-09-23T03:52:20.798Z,101694.31
2022-09-23T03:54:47.356Z,101677.91
2022-09-23T03:57:14.112Z,101657.06
2022-09-23T03:59:40.767Z,101668.53
2022-09-23T04:02:07.720Z,101665.47
2022-09-23T04:04:36.388Z,101664.75
2022-09-23T04:07:03.588Z,101665.78
2022-09-23T04:09:30.287Z,101644.69
2022-09-23T04:11:56.713Z,101655.00
2022-09-23T04:14:23.414Z,101668.56
2022-09-23T04:16:50.201Z,101666.34
2022-09-23T04:19:17.057Z,101668.22
2022-09-23T04:21:44.253Z,101651.28
2022-09-23T04:24:11.300Z,101663.25
2022-09-23T04:26:38.738Z,101665.19
2022-09-23T04:29:05.376Z,101664.75
2022-09-23T04:31:32.702Z,101645.16
2022-09-23T04:33:59.314Z,101655.69
2022-09-23T04:36:26.341Z,101656.88
2022-09-23T04:38:52.780Z,101638.47
2022-09-23T04:41:19.640Z,101624.81
2022-09-23T04:43:46.017Z,101615.69
2022-09-23T04:46:13.948Z,101649.38
2022-09-23T04:48:44.361Z,101636.97
2022-09-23T04:51:13.174Z,101642.59
2022-09-23T04:53:41.984Z,101654.47
2022-09-23T04:56:24.275Z,101658.59
2022-09-23T04:58:51.295Z,101605.94
2022-09-23T05:01:24.799Z,101604.78
2022-09-23T05:03:52.986Z,101647.72
2022-09-23T05:06:20.330Z,101645.97
2022-09-23T05:08:51.490Z,101645.13
2022-09-23T05:11:18.650Z,101613.34
2022-09-23T05:13:46.835Z,101644.03
2022-09-23T05:16:13.396Z,101630.00
2022-09-23T05:18:42.575Z,101647.34
2022-09-23T05:21:10.392Z,101642.91
2022-09-23T05:23:37.688Z,101635.56
2022-09-23T05:26:06.507Z,101652.03
2022-09-23T05:28:34.238Z,101650.84
2022-09-23T05:31:04.254Z,101647.16
2022-09-23T05:33:31.922Z,101656.38
2022-09-23T05:35:58.302Z,101635.94
2022-09-23T05:38:25.078Z,101653.28
2022-09-23T05:41:03.079Z,101661.25
2022-09-23T05:43:29.805Z,101654.69
2022-09-23T05:46:08.330Z,101657.81
2022-09-23T05:48:36.085Z,101656.88
2022-09-23T05:51:03.519Z,101654.28
2022-09-23T05:53:30.533Z,101650.66
2022-09-23T05:55:57.561Z,101633.59
2022-09-23T05:58:24.318Z,101653.66
2022-09-23T06:00:51.338Z,101636.75
2022-09-23T06:03:19.930Z,101660.53
2022-09-23T06:05:46.768Z,101652.44
2022-09-23T06:08:13.400Z,101632.03
2022-09-23T06:10:44.207Z,101652.91
2022-09-23T06:13:11.406Z,101647.88
2022-09-23T06:15:38.961Z,101642.34
2022-09-23T06:18:06.420Z,101647.38
2022-09-23T06:20:35.830Z,101650.19
2022-09-23T06:23:09.361Z,101651.00
2022-09-23T06:25:38.373Z,101634.06
2022-09-23T06:28:05.168Z,101644.06
2022-09-23T06:30:31.595Z,101633.88
2022-09-23T06:32:58.129Z,101641.88
2022-09-23T06:35:27.588Z,101651.34
2022-09-23T06:37:54.927Z,101655.94
2022-09-23T06:40:22.465Z,101642.91
2022-09-23T06:42:52.333Z,101624.53
2022-09-23T06:45:18.901Z,101646.38
2022-09-23T06:47:45.309Z,101634.22
2022-09-23T06:50:12.576Z,101636.38
2022-09-23T06:52:39.150Z,101638.47
2022-09-23T06:55:06.258Z,101620.72
2022-09-23T06:57:33.127Z,101616.00
2022-09-23T06:59:59.640Z,101625.75
2022-09-23T07:02:26.810Z,101656.59
2022-09-23T07:04:57.021Z,101633.16
2022-09-23T07:07:23.619Z,101646.03
2022-09-23T07:09:50.227Z,101637.91
2022-09-23T07:12:16.589Z,101644.94
2022-09-23T07:14:42.949Z,101646.53
2022-09-23T07:17:09.448Z,101655.25
2022-09-23T07:19:36.153Z,101637.31
2022-09-23T07:22:02.548Z,101610.56
2022-09-23T07:24:28.995Z,101627.88
2022-09-23T07:26:55.505Z,101641.91
2022-09-23T07:29:22.154Z,101645.19
2022-09-23T07:31:48.645Z,101618.63
2022-09-23T07:34:15.082Z,101648.44
2022-09-23T07:36:41.741Z,101646.97
2022-09-23T07:39:11.003Z,101653.63
2022-09-23T07:41:37.999Z,101632.78
2022-09-23T07:44:05.992Z,101633.28
2022-09-23T07:46:34.271Z,101652.66
2022-09-23T07:49:01.865Z,101666.16
2022-09-23T07:51:35.372Z,101654.59
2022-09-23T07:54:02.839Z,101665.34
2022-09-23T07:56:30.509Z,101667.94
2022-09-23T07:59:00.164Z,101643.13
2022-09-23T08:01:29.120Z,101653.03
2022-09-23T08:04:00.201Z,101628.91
2022-09-23T08:06:26.666Z,101623.22
2022-09-23T08:08:53.569Z,101626.31
2022-09-23T08:11:20.213Z,101646.66
2022-09-23T08:13:46.673Z,101632.66
2022-09-23T08:16:13.658Z,101651.00
2022-09-23T08:18:40.078Z,101649.84
2022-09-23T08:21:06.486Z,101650.78
2022-09-23T08:23:33.857Z,101639.19
2022-09-23T08:26:02.411Z,101656.41
2022-09-23T08:28:29.101Z,101646.09
2022-09-23T08:30:55.758Z,101644.13
2022-09-23T08:33:23.635Z,101640.78
2022-09-23T08:35:51.023Z,101640.00
2022-09-23T08:38:17.669Z,101630.81
2022-09-23T08:40:47.388Z,101647.72
2022-09-23T08:43:29.884Z,101642.44
2022-09-23T08:45:58.367Z,101634.44
2022-09-23T08:48:33.640Z,101645.56
2022-09-23T08:51:04.237Z,101619.59
2022-09-23T08:53:36.409Z,101625.53
2022-09-23T08:56:15.468Z,101608.59
2022-09-23T08:58:48.106Z,101639.19
2022-09-23T09:01:33.170Z,101638.56
2022-09-23T09:04:12.401Z,101630.34
2022-09-23T09:06:53.669Z,101630.88
2022-09-23T09:09:30.793Z,101644.41
2022-09-23T09:12:03.870Z,101622.75
2022-09-23T09:14:37.922Z,101645.31
2022-09-23T09:17:10.332Z,101643.19
2022-09-23T09:19:55.845Z,101634.69
2022-09-23T09:22:41.621Z,101626.50
2022-09-23T09:25:33.478Z,101637.69
2022-09-23T09:28:01.336Z,101611.94
2022-09-23T09:30:30.042Z,101631.47
2022-09-23T09:33:04.707Z,101626.22
2022-09-23T09:36:01.631Z,101624.09
2022-09-23T09:38:28.212Z,101615.94
2022-09-23T09:40:55.743Z,101627.22
2022-09-23T09:43:24.979Z,101633.91
2022-09-23T09:46:10.897Z,101628.09
2022-09-23T09:48:53.655Z,101626.88
2022-09-23T09:51:24.632Z,101626.19
2022-09-23T09:53:55.645Z,101627.56
2022-09-23T09:56:31.177Z,101636.72
2022-09-23T09:59:06.552Z,101617.34
2022-09-23T10:01:34.878Z,101613.34
2022-09-23T10:04:04.015Z,101620.31
2022-09-23T10:06:33.094Z,101623.75
2022-09-23T10:09:11.867Z,101614.59
2022-09-23T10:11:38.793Z,101594.22
2022-09-23T10:14:19.248Z,101600.94
2022-09-23T10:16:48.821Z,101604.13
2022-09-23T10:19:27.978Z,101531.56
2022-09-23T10:21:56.872Z,101574.47
2022-09-23T10:24:26.658Z,101573.31
2022-09-23T10:27:00.316Z,101581.53
2022-09-23T10:29:38.497Z,101592.75
2022-09-23T10:32:28.357Z,101583.53
2022-09-23T10:35:03.262Z,101588.22
2022-09-23T10:37:48.359Z,101582.56
2022-09-23T10:40:48.870Z,101598.72
2022-09-23T10:43:47.077Z,101604.69
2022-09-23T10:46:37.818Z,101584.28
2022-09-23T10:49:20.716Z,101595.00
2022-09-23T10:52:05.335Z,101598.31
2022-09-23T10:54:43.930Z,101615.03
2022-09-23T10:57:30.174Z,101602.00
2022-09-23T11:00:10.278Z,101605.47
2022-09-23T11:02:52.479Z,101597.66
2022-09-23T11:05:44.279Z,101594.19
2022-09-23T11:08:10.585Z,101599.94
2022-09-23T11:10:46.094Z,101602.56
2022-09-23T11:13:54.695Z,101586.34
2022-09-23T11:16:40.797Z,101595.31
2022-09-23T11:19:25.527Z,101596.06
2022-09-23T11:22:15.897Z,101583.53
2022-09-23T11:24:58.312Z,101601.59
2022-09-23T11:27:37.205Z,101597.34
2022-09-23T11:30:03.485Z,101590.63
2022-09-23T11:32:48.633Z,101592.22
2022-09-23T11:35:21.178Z,101577.91
2022-09-23T11:38:01.878Z,101563.56
2022-09-23T11:40:33.523Z,101572.72
2022-09-23T11:43:02.889Z,101583.88
2022-09-23T11:45:35.642Z,101576.59
2022-09-23T11:48:26.786Z,101563.22
2022-09-23T11:51:11.596Z,101574.44
2022-09-23T11:53:45.812Z,101557.84
2022-09-23T11:56:32.881Z,101572.41
2022-09-23T11:59:04.757Z,101563.94
2022-09-23T12:01:37.854Z,101568.59
2022-09-23T12:04:24.279Z,101567.19
2022-09-23T12:07:05.497Z,101572.03
2022-09-23T12:09:57.702Z,101562.13
2022-09-23T12:12:32.306Z,101557.03
2022-09-23T12:15:13.225Z,101540.06
2022-09-23T12:18:02.915Z,101549.78
2022-09-23T12:20:37.097Z,101548.38
2022-09-23T12:23:19.245Z,101549.78
2022-09-23T12:25:47.202Z,101530.38
2022-09-23T12:28:24.160Z,101543.69
2022-09-23T12:30:51.922Z,101539.25
2022-09-23T12:33:27.538Z,101524.69
2022-09-23T12:35:55.322Z,101531.16
2022-09-23T12:38:25.256Z,101528.34
2022-09-23T12:40:53.329Z,101535.41
2022-09-23T12:43:30.274Z,101531.16
2022-09-23T12:46:29.428Z,101531.34
2022-09-23T12:48:59.892Z,101521.28
2022-09-23T12:51:36.564Z,101534.19
2022-09-23T12:54:06.867Z,101522.69
2022-09-23T12:56:36.287Z,101521.66
2022-09-23T12:59:24.059Z,101515.38
2022-09-23T13:01:50.653Z,101517.41
2022-09-23T13:05:03.940Z,101482.44
2022-09-23T13:07:34.177Z,101441.16
2022-09-23T13:10:11.196Z,101486.69
2022-09-23T13:12:39.430Z,101476.97
2022-09-23T13:15:15.535Z,101466.88
2022-09-23T13:17:41.995Z,101467.28
2022-09-23T13:20:20.791Z,101525.09
2022-09-23T13:22:51.733Z,101514.78
2022-09-23T13:25:34.769Z,101481.81
2022-09-23T13:28:02.243Z,101496.38
2022-09-23T13:30:28.766Z,101460.81
2022-09-23T13:33:17.160Z,101502.47
2022-09-23T13:35:46.781Z,101492.75
2022-09-23T13:38:20.569Z,101499.00
2022-09-23T13:40:47.402Z,101459.78
2022-09-23T13:43:22.877Z,101489.31
2022-09-23T13:45:49.923Z,101469.88
2022-09-23T13:48:16.659Z,101487.06
2022-09-23T13:50:47.788Z,101485.88
2022-09-23T13:53:26.546Z,101482.59
2022-09-23T13:56:29.533Z,101489.72
2022-09-23T13:59:15.774Z,101483.66
2022-09-23T14:01:42.305Z,101482.63
2022-09-23T14:04:23.359Z,101440.56
2022-09-23T14:06:49.913Z,101473.16
2022-09-23T14:09:17.898Z,101474.34
2022-09-23T14:11:44.544Z,101475.53
2022-09-23T14:14:13.470Z,101477.38
2022-09-23T14:16:40.738Z,101465.03
2022-09-23T14:19:11.399Z,101477.81
2022-09-23T14:21:40.090Z,101471.28
2022-09-23T14:24:22.802Z,101472.31
2022-09-23T14:26:54.995Z,101468.88
2022-09-23T14:29:25.047Z,101456.31
2022-09-23T14:32:02.281Z,101454.88
2022-09-23T14:34:51.595Z,101436.72
2022-09-23T14:37:36.513Z,101461.16
2022-09-23T14:40:18.902Z,101440.56
2022-09-23T14:42:48.924Z,101424.59
2022-09-23T14:45:22.047Z,101449.63
2022-09-23T14:47:57.385Z,101422.00
2022-09-23T14:50:43.629Z,101436.34
2022-09-23T14:53:33.101Z,101425.84
2022-09-23T14:56:08.690Z,101447.88
2022-09-23T14:58:58.083Z,101429.03
2022-09-23T15:01:30.878Z,101435.75
2022-09-23T15:04:13.571Z,101440.19
2022-09-23T15:06:44.815Z,101421.97
2022-09-23T15:09:20.066Z,101429.06
2022-09-23T15:11:46.814Z,101415.13
2022-09-23T15:14:36.627Z,101388.81
2022-09-23T15:17:01.285Z,101417.13
2022-09-23T15:19:28.880Z,101417.91
2022-09-23T15:21:55.371Z,101415.53
2022-09-23T15:24:36.334Z,101411.25
2022-09-23T15:27:03.034Z,101398.50
2022-09-23T15:29:30.274Z,101406.59
2022-09-23T15:31:57.738Z,101416.50
2022-09-23T15:34:24.160Z,101406.81
2022-09-23T15:36:50.717Z,101421.75
2022-09-23T15:39:17.121Z,101412.66
2022-09-23T15:41:43.874Z,101425.38
2022-09-23T15:44:15.198Z,101429.66
2022-09-23T15:46:51.827Z,101410.66
2022-09-23T15:49:36.718Z,101352.81
2022-09-23T15:52:04.283Z,101415.91
2022-09-23T15:54:32.346Z,101418.09
2022-09-23T15:56:58.781Z,101402.13
2022-09-23T15:59:25.162Z,101411.63
2022-09-23T16:01:52.340Z,101409.00
2022-09-23T16:04:19.006Z,101388.78
2022-09-23T16:06:48.230Z,101402.50
2022-09-23T16:09:15.468Z,101391.78
2022-09-23T16:11:47.047Z,101417.44
2022-09-23T16:14:15.562Z,101389.31
2022-09-23T16:16:44.855Z,101425.69
2022-09-23T16:19:12.342Z,101418.41
2022-09-23T16:21:40.796Z,101402.56
2022-09-23T16:24:17.991Z,101426.41
2022-09-23T16:26:46.512Z,101425.84
2022-09-23T16:29:13.237Z,101420.13
2022-09-23T16:31:39.994Z,101417.88
2022-09-23T16:34:06.610Z,101402.28
2022-09-23T16:36:35.849Z,101434.97
2022-09-23T16:39:05.037Z,101417.59
2022-09-23T16:41:31.765Z,101432.91
2022-09-23T16:44:00.532Z,101417.47
2022-09-23T16:46:29.030Z,101437.06
2022-09-23T16:48:57.495Z,101430.34
2022-09-23T16:51:26.572Z,101434.56
2022-09-23T16:53:56.427Z,101432.47
2022-09-23T16:56:28.465Z,101422.34
2022-09-23T16:58:55.494Z,101424.78
2022-09-23T17:01:42.938Z,101406.50
2022-09-23T17:04:10.605Z,101414.44
2022-09-23T17:06:43.184Z,101427.34
2022-09-23T17:09:10.097Z,101429.34
2022-09-23T17:11:38.040Z,101431.66
2022-09-23T17:14:05.219Z,101380.97
2022-09-23T17:16:34.387Z,101418.19
2022-09-23T17:19:06.928Z,101425.59
2022-09-23T17:21:33.534Z,101417.69
2022-09-23T17:24:00.374Z,101428.34
2022-09-23T17:26:27.269Z,101416.13
2022-09-23T17:28:56.111Z,101414.47
2022-09-23T17:31:24.292Z,101418.50
2022-09-23T17:33:51.619Z,101431.22
2022-09-23T17:36:18.525Z,101420.94
2022-09-23T17:38:46.098Z,101422.53
2022-09-23T17:41:13.561Z,101425.03
2022-09-23T17:43:40.718Z,101421.66
2022-09-23T17:46:14.500Z,101419.19
2022-09-23T17:48:41.799Z,101378.47
2022-09-23T17:51:17.381Z,101374.88
2022-09-23T17:53:45.314Z,101400.03
2022-09-23T17:56:19.310Z,101404.47
2022-09-23T17:58:47.050Z,101406.97
2022-09-23T18:01:31.844Z,101395.38
2022-09-23T18:04:00.590Z,101410.31
2022-09-23T18:06:31.722Z,101392.69
2022-09-23T18:09:01.435Z,101399.22
2022-09-23T18:11:28.485Z,101415.69
2022-09-23T18:14:00.285Z,101394.81
2022-09-23T18:16:29.093Z,101396.06
2022-09-23T18:18:57.453Z,101394.16
2022-09-23T18:21:25.348Z,101382.19
2022-09-23T18:23:51.951Z,101395.00
2022-09-23T18:26:22.867Z,101413.31
2022-09-23T18:28:52.659Z,101415.94
2022-09-23T18:31:20.161Z,101416.66
2022-09-23T18:33:54.469Z,101398.28
2022-09-23T18:36:22.927Z,101408.44
2022-09-23T18:38:50.353Z,101409.44
2022-09-23T18:41:17.445Z,101409.03
2022-09-23T18:43:48.310Z,101407.56
2022-09-23T18:46:20.338Z,101408.75
2022-09-23T18:49:05.949Z,101397.47
2022-09-23T18:51:34.641Z,101381.81
2022-09-23T18:54:02.487Z,101382.44
2022-09-23T18:56:33.564Z,101394.59
2022-09-23T18:59:00.612Z,101408.56
2022-09-23T19:01:27.179Z,101403.34
2022-09-23T19:03:57.783Z,101413.41
2022-09-23T19:06:24.977Z,101408.31
2022-09-23T19:08:53.094Z,101424.47
2022-09-23T19:11:20.129Z,101406.06
2022-09-23T19:13:46.751Z,101412.53
2022-09-23T19:16:15.261Z,101397.31
2022-09-23T19:18:43.057Z,101385.25
2022-09-23T19:21:12.625Z,101398.56
2022-09-23T19:23:40.344Z,101402.59
2022-09-23T19:26:09.407Z,101406.59
2022-09-23T19:28:36.746Z,101386.50
2022-09-23T19:31:15.065Z,101410.34
2022-09-23T19:33:41.780Z,101384.50
2022-09-23T19:36:09.507Z,101396.41
2022-09-23T19:38:38.262Z,101407.31
2022-09-23T19:41:06.665Z,101393.97
2022-09-23T19:43:33.045Z,101390.91
2022-09-23T19:45:59.500Z,101396.41
2022-09-23T19:48:25.911Z,101400.19
2022-09-23T19:50:52.358Z,101398.50
2022-09-23T19:53:18.876Z,101392.22
2022-09-23T19:55:45.259Z,101383.72
2022-09-23T19:58:12.369Z,101379.84
2022-09-23T20:00:38.777Z,101383.22
2022-09-23T20:03:05.274Z,101372.97
2022-09-23T20:05:31.658Z,101374.09
2022-09-23T20:08:00.927Z,101386.63
2022-09-23T20:10:27.366Z,101388.88
2022-09-23T20:12:53.774Z,101390.59
2022-09-23T20:15:20.671Z,101385.81
2022-09-23T20:17:47.026Z,101377.19
2022-09-23T20:20:15.621Z,101378.16
2022-09-23T20:22:42.156Z,101384.09
2022-09-23T20:25:13.371Z,101382.81
2022-09-23T20:27:40.206Z,101383.09
2022-09-23T20:30:07.471Z,101383.72
2022-09-23T20:32:35.428Z,101348.31
2022-09-23T20:35:01.807Z,101356.41
2022-09-23T20:37:28.314Z,101345.72
2022-09-23T20:39:54.687Z,101376.53
2022-09-23T20:42:21.768Z,101356.06
2022-09-23T20:44:48.312Z,101372.31
2022-09-23T20:47:17.864Z,101353.44
2022-09-23T20:49:46.093Z,101373.44
2022-09-23T20:52:15.108Z,101352.47
2022-09-23T20:54:42.051Z,101364.09
2022-09-23T20:57:10.876Z,101333.25
2022-09-23T20:59:37.582Z,101359.38
2022-09-23T21:02:04.801Z,101348.13
2022-09-23T21:04:31.472Z,101347.50
2022-09-23T21:06:58.117Z,101350.94
2022-09-23T21:09:29.008Z,101350.50
2022-09-23T21:11:55.549Z,101343.00
2022-09-23T21:14:22.466Z,101338.97
2022-09-23T21:16:52.700Z,101343.97
2022-09-23T21:19:19.469Z,101327.78
2022-09-23T21:21:45.923Z,101348.59
2022-09-23T21:24:40.019Z,101332.47
2022-09-23T21:26:58.841Z,101352.00
2022-09-23T21:29:25.199Z,101340.88
2022-09-23T21:31:51.611Z,101340.94
2022-09-23T21:34:18.159Z,101340.03
2022-09-23T21:36:44.658Z,101330.50
2022-09-23T21:39:11.860Z,101320.66
2022-09-23T21:41:39.393Z,101332.66
2022-09-23T21:44:06.388Z,101350.47
2022-09-23T21:46:35.808Z,101350.22
2022-09-23T21:49:03.640Z,101344.81
2022-09-23T21:51:38.443Z,101327.78
2022-09-23T21:54:05.613Z,101333.38
2022-09-23T21:56:37.542Z,101342.13
2022-09-23T21:59:04.904Z,101336.53
2022-09-23T22:01:36.437Z,101329.25
2022-09-23T22:04:09.219Z,101348.72
2022-09-23T22:06:37.969Z,101343.47
2022-09-23T22:09:08.866Z,101346.53
2022-09-23T22:11:55.572Z,101351.38
2022-09-23T22:14:25.983Z,101346.72
2022-09-23T22:16:58.836Z,101343.66
2022-09-23T22:19:26.865Z,101356.72
2022-09-23T22:21:53.913Z,101335.53
2022-09-23T22:24:20.278Z,101330.16
2022-09-23T22:26:46.820Z,101333.22
2022-09-23T22:29:33.208Z,101329.97
2022-09-23T22:32:19.968Z,101321.06
2022-09-23T22:34:50.674Z,101335.63
2022-09-23T22:37:21.207Z,101320.59
2022-09-23T22:39:47.633Z,101311.03
2022-09-23T22:42:14.325Z,101327.34
2022-09-23T22:44:40.763Z,101323.72
2022-09-23T22:47:07.991Z,101326.97
2022-09-23T22:49:34.460Z,101314.47
2022-09-23T22:52:02.305Z,101313.75
2022-09-23T22:54:33.446Z,101318.84
2022-09-23T22:57:03.130Z,101316.25
2022-09-23T22:59:29.564Z,101313.28
2022-09-23T23:01:56.021Z,101302.38
2022-09-23T23:04:22.438Z,101304.66
2022-09-23T23:06:48.841Z,101322.03
2022-09-23T23:09:16.697Z,101310.16
2022-09-23T23:11:43.900Z,101306.63
2022-09-23T23:14:12.146Z,101300.22
2022-09-23T23:16:38.872Z,101284.28
2022-09-23T23:19:09.433Z,101307.41
2022-09-23T23:21:36.803Z,101284.38
2022-09-23T23:24:04.397Z,101299.41
2022-09-23T23:26:32.510Z,101304.28
2022-09-23T23:28:59.568Z,101284.06
2022-09-23T23:31:27.474Z,101300.28
2022-09-23T23:33:53.906Z,101289.41
2022-09-23T23:36:21.801Z,101306.16
2022-09-23T23:38:49.274Z,101291.22
2022-09-23T23:41:18.569Z,101294.78
2022-09-23T23:43:46.359Z,101295.25
2022-09-23T23:46:14.143Z,101294.00
2022-09-23T23:48:41.813Z,101300.13
2022-09-23T23:51:10.775Z,101289.69
2022-09-23T23:53:38.956Z,101282.81
2022-09-23T23:56:12.103Z,101266.69
2022-09-23T23:58:39.125Z,101275.63
